createdAt,value
2018-09-04T00:04:18.770Z,46
2018-09-04T00:09:17.185Z,46
2018-09-04T00:14:15.550Z,46.1
2018-09-04T00:19:14.229Z,46.1
2018-09-04T00:24:12.716Z,46
2018-09-04T00:29:10.801Z,45.9
2018-09-04T00:34:09.383Z,45.8
2018-09-04T00:39:07.902Z,45.8
2018-09-04T00:44:06.428Z,45.8
2018-09-04T00:49:05.037Z,45.8
2018-09-04T00:54:03.658Z,45.8
2018-09-04T00:59:02.161Z,45.9
2018-09-04T01:04:00.579Z,45.9
2018-09-04T01:08:59.223Z,45.9
2018-09-04T01:13:57.624Z,45.9
2018-09-04T01:18:56.191Z,46
2018-09-04T01:23:54.749Z,46
2018-09-04T01:28:53.016Z,46
2018-09-04T01:33:51.491Z,46
2018-09-04T01:38:49.803Z,46.1
2018-09-04T01:43:48.303Z,46
2018-09-04T01:48:46.734Z,45.9
2018-09-04T01:53:45.298Z,45.9
2018-09-04T01:58:43.938Z,46
2018-09-04T02:03:42.092Z,46.1
2018-09-04T02:08:40.382Z,46.1
2018-09-04T02:13:39.011Z,46.1
2018-09-04T02:18:37.398Z,46.1
2018-09-04T02:23:36.001Z,46.2
2018-09-04T02:28:34.523Z,46.2
2018-09-04T02:33:33.453Z,46.2
2018-09-04T02:38:31.422Z,46.2
2018-09-04T02:43:29.768Z,46.3
2018-09-04T02:48:27.834Z,46.2
2018-09-04T02:53:26.467Z,46.2
2018-09-04T02:58:24.922Z,46.3
2018-09-04T03:03:23.435Z,46.3
2018-09-04T03:08:21.906Z,46.3
2018-09-04T03:13:20.560Z,46.3
2018-09-04T03:18:19.058Z,46.3
2018-09-04T03:23:17.851Z,46.4
2018-09-04T03:28:16.376Z,46.4
2018-09-04T03:33:14.977Z,46.4
2018-09-04T03:38:13.501Z,46.5
2018-09-04T03:43:12.147Z,46.5
2018-09-04T03:48:10.707Z,46.5
2018-09-04T03:53:09.207Z,46.5
2018-09-04T03:58:07.747Z,46.5
2018-09-04T04:03:06.097Z,46.5
2018-09-04T04:08:04.318Z,46.5
2018-09-04T04:13:02.918Z,46.6
2018-09-04T04:18:01.556Z,46.7
2018-09-04T04:23:00.171Z,46.6
2018-09-04T04:27:58.721Z,46.6
2018-09-04T04:32:57.187Z,46.6
2018-09-04T04:37:55.597Z,46.7
2018-09-04T04:42:54.783Z,46.7
2018-09-04T04:47:53.191Z,46.7
2018-09-04T04:52:51.682Z,46.7
2018-09-04T04:57:52.309Z,46.7
2018-09-04T05:02:50.952Z,46.7
2018-09-04T05:07:49.455Z,46.7
2018-09-04T05:12:47.963Z,46.8
2018-09-04T05:17:46.620Z,46.8
2018-09-04T05:22:45.690Z,46.9
2018-09-04T05:27:44.043Z,47
2018-09-04T05:32:42.506Z,47
2018-09-04T05:37:41.340Z,47
2018-09-04T05:42:39.942Z,47
2018-09-04T05:47:38.584Z,47.1
2018-09-04T05:52:37.130Z,47.1
2018-09-04T05:57:36.064Z,47.1
2018-09-04T06:02:34.719Z,47.1
2018-09-04T06:07:32.796Z,47.1
2018-09-04T06:12:31.342Z,47.2
2018-09-04T06:17:29.722Z,47.2
2018-09-04T06:22:28.288Z,47.2
2018-09-04T06:27:26.867Z,47.3
2018-09-04T06:32:25.497Z,47.3
2018-09-04T06:37:24.107Z,47.4
2018-09-04T06:42:22.668Z,47.4
2018-09-04T06:47:21.037Z,47.4
2018-09-04T06:52:19.542Z,47.4
2018-09-04T07:02:21.112Z,47.5
2018-09-04T07:07:19.586Z,47.5
2018-09-04T07:12:18.027Z,47.5
2018-09-04T07:17:16.855Z,47.5
2018-09-04T07:22:15.202Z,47.6
2018-09-04T07:27:13.892Z,47.6
2018-09-04T07:32:11.976Z,47.6
2018-09-04T07:37:10.624Z,47.7
2018-09-04T07:42:09.260Z,47.8
2018-09-04T07:47:07.811Z,47.8
2018-09-04T07:52:06.293Z,47.8
2018-09-04T07:57:04.916Z,47.8
2018-09-04T08:02:03.590Z,47.9
2018-09-04T08:07:02.298Z,47.9
2018-09-04T08:12:01.060Z,47.9
2018-09-04T08:16:59.835Z,47.9
2018-09-04T08:21:58.357Z,47.9
2018-09-04T08:26:56.949Z,48
2018-09-04T08:31:55.649Z,48
2018-09-04T08:36:54.068Z,48
2018-09-04T08:41:52.757Z,48.1
2018-09-04T08:46:51.277Z,48.2
2018-09-04T08:51:50.140Z,48.3
2018-09-04T08:56:48.563Z,48.3
2018-09-04T09:01:47.053Z,48.4
2018-09-04T09:06:45.547Z,48.4
2018-09-04T09:11:44.068Z,48.4
2018-09-04T09:16:42.782Z,48.4
2018-09-04T09:21:41.494Z,48.5
2018-09-04T09:26:39.919Z,48.5
2018-09-04T09:31:38.642Z,48.5
2018-09-04T09:36:37.686Z,48.5
2018-09-04T09:41:36.101Z,48.5
2018-09-04T09:46:34.974Z,48.5
2018-09-04T09:51:33.457Z,48.5
2018-09-04T09:56:32.353Z,48.6
2018-09-04T10:01:30.780Z,48.6
2018-09-04T10:06:29.378Z,48.7
2018-09-04T10:11:28.059Z,48.7
2018-09-04T10:16:26.562Z,48.7
2018-09-04T10:21:25.328Z,48.7
2018-09-04T10:26:23.798Z,48.7
2018-09-04T10:31:22.003Z,48.7
2018-09-04T10:36:20.966Z,48.7
2018-09-04T10:41:19.589Z,48.7
2018-09-04T10:46:17.704Z,48.7
2018-09-04T10:51:16.366Z,48.7
2018-09-04T10:56:14.670Z,48.7
2018-09-04T11:01:13.216Z,48.7
2018-09-04T11:06:11.872Z,48.7
2018-09-04T11:11:10.743Z,48.7
2018-09-04T11:16:09.366Z,48.8
2018-09-04T11:21:07.999Z,48.8
2018-09-04T11:26:06.303Z,48.8
2018-09-04T11:31:05.039Z,48.8
2018-09-04T11:36:03.632Z,48.8
2018-09-04T11:41:02.305Z,48.8
2018-09-04T11:46:00.919Z,48.8
2018-09-04T11:50:59.643Z,48.8
2018-09-04T11:55:58.286Z,48.8
2018-09-04T12:00:56.837Z,48.7
2018-09-04T12:05:55.631Z,48.7
2018-09-04T12:10:54.282Z,48.7
2018-09-04T12:15:52.724Z,48.7
2018-09-04T12:20:51.542Z,48.7
2018-09-04T12:25:50.389Z,48.7
2018-09-04T12:30:49.173Z,48.7
2018-09-04T12:35:47.847Z,48.7
2018-09-04T12:40:46.483Z,48.6
2018-09-04T12:45:45.217Z,48.6
2018-09-04T12:50:44.094Z,48.5
2018-09-04T12:55:42.798Z,48.5
2018-09-04T13:00:41.761Z,48.4
2018-09-04T13:05:40.311Z,48.4
2018-09-04T13:10:38.933Z,48.3
2018-09-04T13:15:37.470Z,48.2
2018-09-04T13:20:36.131Z,48.2
2018-09-04T13:25:34.767Z,48.1
2018-09-04T13:30:34.008Z,48.1
2018-09-04T13:35:32.728Z,48.1
2018-09-04T13:40:31.523Z,48.1
2018-09-04T13:45:30.521Z,48
2018-09-04T13:50:28.924Z,48
2018-09-04T13:55:27.574Z,47.8
2018-09-04T14:00:26.272Z,47.7
2018-09-04T14:05:24.684Z,47.6
2018-09-04T14:10:22.801Z,47.5
2018-09-04T14:20:25.311Z,47.4
2018-09-04T14:25:23.868Z,47.3
2018-09-04T14:30:22.637Z,47.2
2018-09-04T14:35:21.019Z,47.2
2018-09-04T14:40:19.657Z,47.2
2018-09-04T14:45:18.375Z,47.2
2018-09-04T14:50:17.112Z,47.1
2018-09-04T14:55:15.469Z,47
2018-09-04T15:00:14.114Z,47
2018-09-04T15:05:12.865Z,46.9
2018-09-04T15:10:11.512Z,46.8
2018-09-04T15:15:10.166Z,46.7
2018-09-04T15:20:08.736Z,46.6
2018-09-04T15:25:06.881Z,46.6
2018-09-04T15:30:05.733Z,46.5
2018-09-04T15:35:03.902Z,46.4
2018-09-04T15:40:02.664Z,46.4
2018-09-04T15:45:01.275Z,46.4
2018-09-04T15:49:59.616Z,46.4
2018-09-04T15:54:58.634Z,46.4
2018-09-04T15:59:57.311Z,46.3
2018-09-04T16:04:56.101Z,46.3
2018-09-04T16:09:55.349Z,46.2
2018-09-04T16:14:53.865Z,46.1
2018-09-04T16:19:52.615Z,46.1
2018-09-04T16:24:51.453Z,46
2018-09-04T16:29:50.098Z,46
2018-09-04T16:34:48.912Z,45.9
2018-09-04T16:39:47.680Z,45.9
2018-09-04T16:44:46.288Z,45.8
2018-09-04T16:49:45.057Z,45.9
2018-09-04T16:54:43.243Z,45.9
2018-09-04T16:59:41.845Z,45.9
2018-09-04T17:04:40.539Z,45.8
2018-09-04T17:09:39.133Z,45.8
2018-09-04T17:14:37.805Z,45.8
2018-09-04T17:19:36.588Z,45.7
2018-09-04T17:24:35.029Z,45.7
2018-09-04T17:29:33.136Z,45.7
2018-09-04T17:34:31.841Z,45.7
2018-09-04T17:39:30.237Z,45.7
2018-09-04T17:44:28.803Z,45.7
2018-09-04T17:49:27.663Z,45.7
2018-09-04T17:54:26.330Z,45.7
2018-09-04T17:59:24.899Z,45.7
2018-09-04T18:04:23.503Z,45.8
2018-09-04T18:09:22.158Z,45.8
2018-09-04T18:14:20.734Z,45.8
2018-09-04T18:19:19.458Z,45.7
2018-09-04T18:24:18.318Z,45.7
2018-09-04T18:29:16.843Z,45.6
2018-09-04T18:34:15.261Z,45.6
2018-09-04T18:39:13.850Z,45.6
2018-09-04T18:44:12.600Z,45.6
2018-09-04T18:49:11.183Z,45.6
2018-09-04T18:54:09.822Z,45.6
2018-09-04T18:59:08.533Z,45.5
2018-09-04T19:04:07.184Z,45.6
2018-09-04T19:09:05.862Z,45.6
2018-09-04T19:14:04.408Z,45.6
2018-09-04T19:19:02.926Z,45.6
2018-09-04T19:24:01.604Z,45.6
2018-09-04T19:29:00.517Z,45.5
2018-09-04T19:33:59.199Z,45.5
2018-09-04T19:38:57.911Z,45.5
2018-09-04T19:43:56.409Z,45.5
2018-09-04T19:48:55.067Z,45.5
2018-09-04T19:53:53.715Z,45.5
2018-09-04T19:58:52.350Z,45.5
2018-09-04T20:03:51.168Z,45.6
2018-09-04T20:08:49.809Z,45.5
2018-09-04T20:13:48.536Z,45.5
2018-09-04T20:18:47.137Z,45.4
2018-09-04T20:23:45.705Z,45.4
2018-09-04T20:28:43.997Z,45.5
2018-09-04T20:33:42.562Z,45.5
2018-09-04T20:38:41.070Z,45.5
2018-09-04T20:43:39.734Z,45.6
2018-09-04T20:48:37.969Z,45.6
2018-09-04T20:53:36.486Z,45.6
2018-09-04T20:58:35.143Z,45.6
2018-09-04T21:03:33.206Z,45.7
2018-09-04T21:08:31.874Z,45.7
2018-09-04T21:13:30.102Z,45.7
2018-09-04T21:18:28.717Z,45.7
2018-09-04T21:23:27.309Z,45.6
2018-09-04T21:28:25.836Z,45.6
2018-09-04T21:33:24.622Z,45.6
2018-09-04T21:38:22.710Z,45.7
2018-09-04T21:43:21.331Z,45.7
2018-09-04T21:48:19.890Z,45.7
2018-09-04T21:53:18.507Z,45.7
2018-09-04T21:58:16.860Z,45.8
2018-09-04T22:03:15.286Z,45.8
2018-09-04T22:08:13.938Z,45.8
2018-09-04T22:13:12.772Z,45.8
2018-09-04T22:18:11.108Z,45.9
2018-09-04T22:23:09.531Z,45.9
2018-09-04T22:28:07.907Z,45.9
2018-09-04T22:33:06.488Z,45.9
2018-09-04T22:38:05.133Z,45.9
2018-09-04T22:43:03.625Z,45.9
2018-09-04T22:48:01.930Z,45.9
2018-09-04T22:53:00.577Z,45.9
2018-09-04T22:57:59.121Z,45.9
2018-09-04T23:02:57.594Z,46
2018-09-04T23:07:56.164Z,46
2018-09-04T23:12:54.804Z,46
2018-09-04T23:17:53.153Z,46.1
2018-09-04T23:22:51.778Z,46.1
2018-09-04T23:27:50.422Z,46.1
2018-09-04T23:32:48.973Z,46.2
2018-09-04T23:37:47.457Z,46.2
2018-09-04T23:42:46.122Z,46.2
2018-09-04T23:47:44.935Z,46.2
2018-09-04T23:52:43.246Z,46.2
2018-09-04T23:57:41.830Z,46.2
